createdAt,value
2022-11-16T00:02:02.195Z,98847.00
2022-11-16T00:05:04.255Z,98840.09
2022-11-16T00:08:06.042Z,98832.59
2022-11-16T00:11:18.025Z,98826.38
2022-11-16T00:14:21.449Z,98823.00
2022-11-16T00:17:23.314Z,98816.03
2022-11-16T00:20:25.137Z,98808.63
2022-11-16T00:23:26.941Z,98821.25
2022-11-16T00:26:29.105Z,98811.19
2022-11-16T00:29:31.038Z,98818.53
2022-11-16T00:32:33.513Z,98810.13
2022-11-16T00:35:40.038Z,98805.06
2022-11-16T00:38:42.557Z,98807.47
2022-11-16T00:41:44.965Z,98813.88
2022-11-16T00:44:46.754Z,98813.88
2022-11-16T00:47:48.622Z,98812.91
2022-11-16T00:50:50.484Z,98806.31
2022-11-16T00:53:52.702Z,98819.00
2022-11-16T00:56:55.095Z,98813.97
2022-11-16T00:59:57.428Z,98811.25
2022-11-16T01:02:59.474Z,98796.06
2022-11-16T01:06:03.583Z,98791.59
2022-11-16T01:09:05.890Z,98781.44
2022-11-16T01:12:09.495Z,98778.22
2022-11-16T01:15:13.086Z,98768.25
2022-11-16T01:18:14.922Z,98773.22
2022-11-16T01:21:17.462Z,98765.34
2022-11-16T01:24:19.446Z,98763.88
2022-11-16T01:27:21.327Z,98763.69
2022-11-16T01:30:23.312Z,98765.59
2022-11-16T01:33:36.855Z,98754.81
2022-11-16T01:36:39.003Z,98761.31
2022-11-16T01:39:40.817Z,98743.88
2022-11-16T01:42:43.677Z,98754.59
2022-11-16T01:45:46.563Z,98756.09
2022-11-16T01:49:18.386Z,98739.19
2022-11-16T01:52:25.269Z,98719.78
2022-11-16T01:55:31.000Z,98716.94
2022-11-16T01:58:55.546Z,98716.78
2022-11-16T02:02:01.582Z,98716.78
2022-11-16T02:05:06.033Z,98719.34
2022-11-16T02:08:53.757Z,98708.91
2022-11-16T02:12:06.824Z,98716.69
2022-11-16T02:15:34.516Z,98715.88
2022-11-16T02:19:12.138Z,98703.25
2022-11-16T02:22:13.931Z,98700.34
2022-11-16T02:25:35.006Z,98695.47
2022-11-16T02:28:45.821Z,98684.34
2022-11-16T02:32:02.990Z,98683.41
2022-11-16T02:35:20.955Z,98683.59
2022-11-16T02:38:29.687Z,98687.63
2022-11-16T02:41:37.023Z,98680.94
2022-11-16T02:44:43.795Z,98680.84
2022-11-16T02:47:48.570Z,98680.03
2022-11-16T02:50:53.476Z,98682.69
2022-11-16T02:54:03.020Z,98669.16
2022-11-16T02:57:06.015Z,98676.56
2022-11-16T03:00:15.750Z,98674.25
2022-11-16T03:03:42.079Z,98666.59
2022-11-16T03:06:48.492Z,98651.84
2022-11-16T03:09:51.997Z,98655.09
2022-11-16T03:12:53.979Z,98638.31
2022-11-16T03:15:56.397Z,98637.53
2022-11-16T03:19:02.356Z,98636.50
2022-11-16T03:22:37.603Z,98634.66
2022-11-16T03:25:52.602Z,98640.81
2022-11-16T03:29:13.947Z,98648.13
2022-11-16T03:32:26.036Z,98635.69
2022-11-16T03:35:45.776Z,98640.97
2022-11-16T03:38:50.847Z,98626.47
2022-11-16T03:41:54.066Z,98620.50
2022-11-16T03:44:56.271Z,98627.09
2022-11-16T03:48:00.677Z,98621.81
2022-11-16T03:51:03.891Z,98626.19
2022-11-16T03:54:07.699Z,98611.94
2022-11-16T03:57:18.072Z,98613.38
2022-11-16T04:00:24.974Z,98600.84
2022-11-16T04:03:28.250Z,98590.72
2022-11-16T04:06:48.876Z,98592.25
2022-11-16T04:10:09.133Z,98593.19
2022-11-16T04:13:31.701Z,98593.06
2022-11-16T04:16:52.498Z,98579.53
2022-11-16T04:20:14.509Z,98574.31
2022-11-16T04:23:35.253Z,98566.84
2022-11-16T04:26:57.829Z,98566.75
2022-11-16T04:30:02.634Z,98559.16
2022-11-16T04:33:25.177Z,98559.91
2022-11-16T04:36:45.942Z,98558.44
2022-11-16T04:39:47.911Z,98554.03
2022-11-16T04:42:58.167Z,98549.66
2022-11-16T04:46:19.689Z,98552.69
2022-11-16T04:49:21.447Z,98537.69
2022-11-16T04:52:23.277Z,98541.13
2022-11-16T04:55:26.782Z,98537.22
2022-11-16T04:58:28.669Z,98534.81
2022-11-16T05:01:49.608Z,98540.69
2022-11-16T05:04:51.690Z,98532.56
2022-11-16T05:07:55.367Z,98539.22
2022-11-16T05:11:01.964Z,98544.00
2022-11-16T05:14:05.234Z,98551.09
2022-11-16T05:17:08.341Z,98550.84
2022-11-16T05:20:29.287Z,98551.69
2022-11-16T05:23:54.977Z,98543.78
2022-11-16T05:27:08.705Z,98547.53
2022-11-16T05:30:11.941Z,98549.63
2022-11-16T05:33:16.448Z,98552.47
2022-11-16T05:36:19.131Z,98546.88
2022-11-16T05:39:21.154Z,98544.88
2022-11-16T05:43:04.719Z,98539.88
2022-11-16T05:47:11.810Z,98526.44
2022-11-16T05:51:13.438Z,98532.44
2022-11-16T05:54:35.334Z,98525.31
2022-11-16T05:57:38.428Z,98526.69
2022-11-16T06:00:40.466Z,98539.13
2022-11-16T06:03:44.747Z,98529.66
2022-11-16T06:06:47.630Z,98533.22
2022-11-16T06:09:49.631Z,98523.44
2022-11-16T06:12:55.655Z,98518.78
2022-11-16T06:15:59.055Z,98524.28
2022-11-16T06:19:01.667Z,98514.06
2022-11-16T06:22:03.978Z,98521.00
2022-11-16T06:29:11.837Z,98517.78
2022-11-16T06:32:14.641Z,98512.91
2022-11-16T06:35:17.266Z,98514.63
2022-11-16T06:38:20.195Z,98513.09
2022-11-16T06:41:24.358Z,98504.31
2022-11-16T06:44:26.462Z,98515.41
2022-11-16T06:47:34.542Z,98511.03
2022-11-16T06:50:36.520Z,98512.81
2022-11-16T06:53:40.377Z,98503.41
2022-11-16T06:56:43.787Z,98506.72
2022-11-16T06:59:47.470Z,98499.53
2022-11-16T07:02:51.321Z,98495.81
2022-11-16T07:05:55.830Z,98503.91
2022-11-16T07:08:59.370Z,98493.75
2022-11-16T07:12:07.235Z,98496.63
2022-11-16T07:15:12.946Z,98490.09
2022-11-16T07:18:17.020Z,98483.31
2022-11-16T07:21:19.525Z,98480.25
2022-11-16T07:24:21.614Z,98474.00
2022-11-16T07:27:24.349Z,98465.50
2022-11-16T07:30:27.919Z,98465.72
2022-11-16T07:33:40.828Z,98463.13
2022-11-16T07:37:18.417Z,98446.94
2022-11-16T07:40:21.468Z,98449.69
2022-11-16T07:43:24.242Z,98453.00
2022-11-16T07:46:47.064Z,98457.59
2022-11-16T07:49:50.296Z,98458.53
2022-11-16T07:52:56.418Z,98455.63
2022-11-16T07:55:58.683Z,98446.50
2022-11-16T07:59:03.474Z,98454.19
2022-11-16T08:02:10.953Z,98467.00
2022-11-16T08:05:15.227Z,98456.47
2022-11-16T08:08:17.613Z,98454.50
2022-11-16T08:11:20.750Z,98444.97
2022-11-16T08:14:25.500Z,98456.38
2022-11-16T08:17:30.842Z,98452.81
2022-11-16T08:20:35.070Z,98453.41
2022-11-16T08:23:37.625Z,98450.84
2022-11-16T08:26:39.604Z,98450.72
2022-11-16T08:29:46.458Z,98455.25
2022-11-16T08:32:48.696Z,98446.41
2022-11-16T08:35:53.139Z,98450.41
2022-11-16T08:38:55.797Z,98442.94
2022-11-16T08:41:59.694Z,98455.28
2022-11-16T08:45:01.940Z,98448.09
2022-11-16T08:48:05.660Z,98455.88
2022-11-16T08:51:19.580Z,98455.66
2022-11-16T08:54:28.913Z,98447.78
2022-11-16T08:57:31.310Z,98441.88
2022-11-16T09:00:38.249Z,98438.13
2022-11-16T09:03:43.035Z,98442.72
2022-11-16T09:06:45.815Z,98441.53
2022-11-16T09:09:47.696Z,98436.88
2022-11-16T09:12:50.220Z,98438.63
2022-11-16T09:16:01.678Z,98423.47
2022-11-16T09:19:03.671Z,98433.72
2022-11-16T09:22:05.937Z,98427.63
2022-11-16T09:25:09.445Z,98431.44
2022-11-16T09:28:11.554Z,98429.41
2022-11-16T09:31:16.550Z,98424.06
2022-11-16T09:34:22.335Z,98421.81
2022-11-16T09:37:24.410Z,98418.63
2022-11-16T09:40:34.231Z,98420.19
2022-11-16T09:43:55.540Z,98414.94
2022-11-16T09:46:59.795Z,98409.50
2022-11-16T09:50:05.345Z,98411.78
2022-11-16T09:53:39.917Z,98394.72
2022-11-16T09:56:44.473Z,98401.50
2022-11-16T09:59:57.119Z,98389.50
2022-11-16T10:03:02.781Z,98393.09
2022-11-16T10:06:38.888Z,98380.34
2022-11-16T10:09:41.081Z,98376.34
2022-11-16T10:13:14.815Z,98369.59
2022-11-16T10:16:32.063Z,98367.03
2022-11-16T10:19:48.255Z,98361.47
2022-11-16T10:22:50.422Z,98362.72
2022-11-16T10:26:31.276Z,98367.22
2022-11-16T10:29:55.831Z,98363.50
2022-11-16T10:33:20.060Z,98356.66
2022-11-16T10:36:27.482Z,98347.34
2022-11-16T10:39:33.758Z,98351.22
2022-11-16T10:42:39.309Z,98349.97
2022-11-16T10:45:50.530Z,98336.94
2022-11-16T10:49:01.160Z,98325.53
2022-11-16T10:52:03.187Z,98321.28
2022-11-16T10:55:05.718Z,98333.16
2022-11-16T10:58:07.765Z,98336.44
2022-11-16T11:01:12.669Z,98322.47
2022-11-16T11:04:28.350Z,98317.13
2022-11-16T11:07:33.206Z,98306.13
2022-11-16T11:10:38.685Z,98308.06
2022-11-16T11:13:40.580Z,98302.25
2022-11-16T11:16:42.613Z,98297.91
2022-11-16T11:19:45.279Z,98272.56
2022-11-16T11:23:02.915Z,98281.63
2022-11-16T11:26:05.327Z,98285.28
2022-11-16T11:29:20.467Z,98289.38
2022-11-16T11:32:26.848Z,98287.34
2022-11-16T11:35:33.598Z,98285.59
2022-11-16T11:39:03.277Z,98275.84
2022-11-16T11:42:14.336Z,98276.78
2022-11-16T11:45:17.966Z,98269.22
2022-11-16T11:48:47.948Z,98265.38
2022-11-16T11:51:51.802Z,98263.19
2022-11-16T11:54:55.812Z,98256.81
2022-11-16T11:58:00.474Z,98253.59
2022-11-16T12:01:20.834Z,98255.69
2022-11-16T12:04:48.402Z,98253.50
2022-11-16T12:08:10.570Z,98251.03
2022-11-16T12:11:24.485Z,98252.78
2022-11-16T12:14:45.208Z,98245.09
2022-11-16T12:18:05.148Z,98249.16
2022-11-16T12:21:27.970Z,98248.66
2022-11-16T12:24:35.539Z,98238.16
2022-11-16T12:27:48.992Z,98225.47
2022-11-16T12:31:06.789Z,98234.88
2022-11-16T12:34:25.895Z,98236.91
2022-11-16T12:37:52.282Z,98244.16
2022-11-16T12:41:34.975Z,98240.78
2022-11-16T12:44:39.467Z,98238.22
2022-11-16T12:47:57.702Z,98239.13
2022-11-16T12:51:50.347Z,98237.00
2022-11-16T12:55:24.887Z,98229.03
2022-11-16T12:58:31.022Z,98213.63
2022-11-16T13:01:48.134Z,98217.72
2022-11-16T13:04:55.050Z,98220.03
2022-11-16T13:08:09.395Z,98220.63
2022-11-16T13:11:20.598Z,98208.38
2022-11-16T13:14:35.048Z,98210.84
2022-11-16T13:17:38.841Z,98208.28
2022-11-16T13:20:43.829Z,98194.75
2022-11-16T13:24:23.866Z,98205.59
2022-11-16T13:27:37.654Z,98205.28
2022-11-16T13:31:16.663Z,98206.19
2022-11-16T13:34:34.094Z,98202.00
2022-11-16T13:37:38.429Z,98197.09
2022-11-16T13:40:41.186Z,98195.78
2022-11-16T13:43:49.449Z,98200.91
2022-11-16T13:47:03.661Z,98194.03
2022-11-16T13:50:16.916Z,98191.56
2022-11-16T13:54:25.071Z,98197.53
2022-11-16T13:56:53.027Z,98192.91
2022-11-16T14:00:01.474Z,98194.53
2022-11-16T14:03:11.782Z,98194.63
2022-11-16T14:06:13.499Z,98192.19
2022-11-16T14:09:43.248Z,98187.13
2022-11-16T14:12:52.170Z,98186.09
2022-11-16T14:16:19.848Z,98189.00
2022-11-16T14:19:47.281Z,98165.31
2022-11-16T14:23:16.371Z,98170.56
2022-11-16T14:26:39.099Z,98170.78
2022-11-16T14:30:02.143Z,98161.91
2022-11-16T14:33:04.169Z,98155.94
2022-11-16T14:36:10.744Z,98153.13
2022-11-16T14:39:21.844Z,98146.38
2022-11-16T14:42:27.211Z,98142.16
2022-11-16T14:45:32.040Z,98143.00
2022-11-16T14:49:16.701Z,98144.53
2022-11-16T14:53:18.285Z,98136.84
2022-11-16T14:57:05.245Z,98129.47
2022-11-16T15:00:30.188Z,98121.50
2022-11-16T15:03:37.056Z,98128.88
2022-11-16T15:06:44.867Z,98127.94
2022-11-16T15:09:52.870Z,98133.19
2022-11-16T15:12:56.835Z,98129.56
2022-11-16T15:16:19.940Z,98119.09
2022-11-16T15:19:22.456Z,98126.06
2022-11-16T15:22:27.076Z,98113.03
2022-11-16T15:25:37.998Z,98116.44
2022-11-16T15:28:40.167Z,98114.78
2022-11-16T15:31:42.251Z,98103.81
2022-11-16T15:34:50.959Z,98114.19
2022-11-16T15:38:20.454Z,98109.06
2022-11-16T15:41:24.398Z,98104.75
2022-11-16T15:44:26.883Z,98105.53
2022-11-16T15:47:28.820Z,98111.38
2022-11-16T15:50:31.309Z,98113.94
2022-11-16T15:53:34.494Z,98109.06
2022-11-16T15:56:36.784Z,98109.97
2022-11-16T15:59:38.729Z,98101.91
2022-11-16T20:29:28.154Z,97970.31
2022-11-16T20:32:30.410Z,97965.19
2022-11-16T20:35:33.195Z,97953.31
2022-11-16T20:38:36.540Z,97964.34
2022-11-16T20:41:38.554Z,97966.84
2022-11-16T20:44:40.754Z,97956.78
2022-11-16T20:47:43.240Z,97954.44
2022-11-16T20:50:45.678Z,97955.25
2022-11-16T20:53:49.488Z,97949.44
2022-11-16T20:56:51.594Z,97944.16
2022-11-16T20:59:53.400Z,97941.97
2022-11-16T21:02:55.456Z,97946.88
2022-11-16T21:05:57.578Z,97938.13
2022-11-16T21:09:00.119Z,97942.66
2022-11-16T21:12:20.202Z,97939.66
2022-11-16T21:15:22.246Z,97942.09
2022-11-16T21:18:30.335Z,97943.50
2022-11-16T21:21:33.527Z,97930.66
2022-11-16T21:24:35.312Z,97933.94
2022-11-16T21:27:37.133Z,97935.66
2022-11-16T21:30:39.175Z,97931.97
2022-11-16T21:33:41.555Z,97935.56
2022-11-16T21:36:43.404Z,97934.16
2022-11-16T21:39:45.338Z,97917.13
2022-11-16T21:42:47.741Z,97926.56
2022-11-16T21:45:49.690Z,97916.69
2022-11-16T21:48:52.855Z,97918.66
2022-11-16T21:51:54.692Z,97916.78
2022-11-16T21:54:59.361Z,97905.59
2022-11-16T21:58:03.590Z,97912.25
2022-11-16T22:01:06.085Z,97908.38
2022-11-16T22:04:26.800Z,97912.13
2022-11-16T22:07:36.663Z,97912.94
2022-11-16T22:10:41.274Z,97915.16
2022-11-16T22:13:43.938Z,97902.69
2022-11-16T22:16:45.746Z,97903.97
2022-11-16T22:19:48.363Z,97903.25
2022-11-16T22:22:50.224Z,97913.38
2022-11-16T22:25:52.461Z,97903.59
2022-11-16T22:28:54.687Z,97897.19
2022-11-16T22:31:56.529Z,97895.31
2022-11-16T22:34:58.273Z,97895.00
2022-11-16T22:38:02.351Z,97896.94
2022-11-16T22:41:04.265Z,97893.69
2022-11-16T22:44:06.182Z,97885.06
2022-11-16T22:47:09.497Z,97887.16
2022-11-16T22:50:11.746Z,97887.97
2022-11-16T22:53:14.695Z,97883.91
2022-11-16T22:56:16.501Z,97876.78
2022-11-16T22:59:18.318Z,97882.03
2022-11-16T23:02:20.191Z,97875.84
2022-11-16T23:05:22.113Z,97867.47
2022-11-16T23:08:25.341Z,97852.53
2022-11-16T23:11:45.878Z,97853.22
2022-11-16T23:15:19.894Z,97848.78
2022-11-16T23:18:21.683Z,97842.38
2022-11-16T23:21:42.899Z,97858.50
2022-11-16T23:25:03.878Z,97850.41
2022-11-16T23:28:08.023Z,97849.16
2022-11-16T23:31:09.892Z,97845.97
2022-11-16T23:34:11.665Z,97846.78
2022-11-16T23:37:13.643Z,97849.38
2022-11-16T23:40:16.211Z,97834.78
2022-11-16T23:43:36.654Z,97844.34
2022-11-16T23:46:38.723Z,97848.66
2022-11-16T23:49:40.699Z,97846.22
2022-11-16T23:52:42.558Z,97843.78
2022-11-16T23:55:44.479Z,97838.31
2022-11-16T23:58:46.554Z,97843.22
